Time;durP1;ratioP1;P1;durP2;ratioP2;P2;SDS_P1;SDS_P2;PMS_P1;PMS_P2;Temp;Humidity;BMP_temperature;BMP_pressure;BME280_temperature;BME280_humidity;BME280_pressure;Samples;Min_cycle;Max_cycle;Signal;HPM_P1;HPM_P2
2022/11/07 00:00:00;;;;;;;6.57;2.55;;;;;;;10.44;100.00;100478.06;5083101;28;20138;-77
2022/11/07 00:02:25;;;;;;;5.63;2.30;;;;;;;10.51;100.00;100476.56;5080400;28;20478;-78
2022/11/07 00:04:51;;;;;;;13.15;3.25;;;;;;;10.56;100.00;100489.81;5084885;28;20068;-78
2022/11/07 00:07:17;;;;;;;4.88;2.20;;;;;;;10.55;100.00;100488.09;5086274;28;20032;-79
2022/11/07 00:09:42;;;;;;;8.73;2.70;;;;;;;10.57;100.00;100475.16;5086238;28;20023;-78
2022/11/07 00:12:08;;;;;;;8.18;2.50;;;;;;;10.64;100.00;100482.72;5104311;28;20055;-78
2022/11/07 00:14:33;;;;;;;11.15;2.97;;;;;;;10.64;100.00;100470.88;5071158;28;20036;-78
2022/11/07 00:16:59;;;;;;;7.75;2.60;;;;;;;10.63;100.00;100491.06;5085079;28;20039;-78
2022/11/07 00:19:24;;;;;;;9.13;2.30;;;;;;;10.52;100.00;100493.84;5082612;28;20445;-79
2022/11/07 00:21:50;;;;;;;9.00;2.95;;;;;;;10.39;100.00;100486.66;5066677;28;20028;-78
2022/11/07 00:24:17;;;;;;;9.43;2.35;;;;;;;10.39;100.00;100481.19;5068640;28;20035;-78
2022/11/07 00:26:46;;;;;;;8.38;2.63;;;;;;;10.31;100.00;100483.66;5121778;28;20061;-78
2022/11/07 00:29:17;;;;;;;17.30;2.75;;;;;;;10.27;100.00;100490.41;5103272;28;20121;-79
2022/11/07 00:31:43;;;;;;;9.23;2.17;;;;;;;10.27;100.00;100494.00;5081148;28;20055;-79
2022/11/07 00:34:09;;;;;;;11.02;2.25;;;;;;;10.25;100.00;100489.69;5071802;28;20039;-78
2022/11/07 00:36:34;;;;;;;10.60;2.38;;;;;;;10.28;100.00;100501.22;5120620;28;20417;-77
2022/11/07 00:39:00;;;;;;;10.35;3.25;;;;;;;10.32;100.00;100495.50;5120150;28;20497;-78
2022/11/07 00:41:26;;;;;;;10.70;2.55;;;;;;;10.33;100.00;100503.63;5071899;28;20035;-78
2022/11/07 00:43:52;;;;;;;9.52;2.33;;;;;;;10.30;100.00;100503.84;5119105;28;20367;-78
2022/11/07 00:46:19;;;;;;;10.02;2.33;;;;;;;10.32;100.00;100499.13;5101486;28;20380;-78
2022/11/07 00:48:45;;;;;;;4.47;2.15;;;;;;;10.26;100.00;100519.66;5072500;28;20024;-77
2022/11/07 00:51:20;;;;;;;12.60;3.25;;;;;;;10.24;100.00;100499.72;5096762;28;20058;-77
2022/11/07 00:53:46;;;;;;;8.05;2.55;;;;;;;10.24;100.00;100499.72;5081592;28;20051;-77
2022/11/07 00:56:14;;;;;;;6.15;2.40;;;;;;;10.22;100.00;100500.88;5089248;28;20096;-79
2022/11/07 00:58:41;;;;;;;9.50;2.63;;;;;;;10.19;100.00;100492.91;5100606;28;20071;-78
2022/11/07 01:01:18;;;;;;;8.88;2.35;;;;;;;10.21;100.00;100497.25;5119061;28;20036;-79
2022/11/07 01:06:32;;;;;;;8.82;2.78;;;;;;;10.22;100.00;100509.94;5099632;28;20887;-78
2022/11/07 01:08:58;;;;;;;8.48;2.53;;;;;;;10.21;100.00;100499.97;5084624;28;20104;-79
2022/11/07 01:11:26;;;;;;;10.00;2.25;;;;;;;10.21;100.00;100507.31;5084084;28;20038;-78
2022/11/07 01:13:57;;;;;;;11.20;2.70;;;;;;;10.26;100.00;100507.81;5083288;28;20039;-78
2022/11/07 01:16:23;;;;;;;9.10;2.42;;;;;;;10.19;100.00;100509.34;5101918;28;20024;-78
2022/11/07 01:18:48;;;;;;;5.57;2.38;;;;;;;10.16;100.00;100521.38;5081069;28;20384;-78
2022/11/07 01:21:14;;;;;;;9.02;2.25;;;;;;;10.25;100.00;100517.03;5117919;28;20042;-77
2022/11/07 01:23:39;;;;;;;7.63;2.03;;;;;;;10.17;100.00;100519.53;5066724;28;20093;-77
2022/11/07 01:26:07;;;;;;;13.55;2.70;;;;;;;10.20;100.00;100531.09;5106686;28;20026;-78
2022/11/07 01:28:34;;;;;;;8.10;2.15;;;;;;;10.20;100.00;100531.09;5084340;28;20393;-78
2022/11/07 01:31:05;;;;;;;5.68;1.90;;;;;;;10.23;100.00;100532.69;5083494;28;20055;-78
2022/11/07 01:33:31;;;;;;;6.53;1.83;;;;;;;10.19;100.00;100536.69;5098506;28;20061;-79
2022/11/07 01:36:07;;;;;;;3.92;2.28;;;;;;;10.16;100.00;100531.47;5098694;28;20073;-78
2022/11/07 01:38:34;;;;;;;8.50;2.22;;;;;;;10.14;100.00;100522.53;5100030;28;20382;-78
2022/11/07 01:43:58;;;;;;;11.88;2.58;;;;;;;10.18;100.00;100529.47;5094680;28;20123;-78
2022/11/07 01:46:33;;;;;;;7.85;2.33;;;;;;;10.21;100.00;100527.34;5093980;28;20031;-79
2022/11/07 01:49:26;;;;;;;9.65;2.50;;;;;;;10.29;100.00;100535.78;5098431;28;20020;-78
2022/11/07 01:52:03;;;;;;;8.43;2.00;;;;;;;10.34;100.00;100532.69;5081818;28;20027;-79
2022/11/07 01:54:33;;;;;;;5.63;2.30;;;;;;;10.38;100.00;100534.19;5113781;28;20024;-77
2022/11/07 01:57:02;;;;;;;7.47;1.98;;;;;;;10.46;100.00;100537.16;5094208;28;20031;-77
2022/11/07 01:59:30;;;;;;;5.93;2.05;;;;;;;10.52;100.00;100537.63;5117900;28;20035;-78
2022/11/07 02:01:55;;;;;;;15.63;2.55;;;;;;;10.55;100.00;100530.03;5098771;28;20099;-78
2022/11/07 02:04:24;;;;;;;8.98;2.13;;;;;;;10.48;100.00;100532.41;5068276;28;20062;-79
2022/11/07 02:07:10;;;;;;;8.52;2.00;;;;;;;10.50;100.00;100531.44;5084556;28;20077;-78
2022/11/07 02:09:35;;;;;;;11.00;2.03;;;;;;;10.52;100.00;100522.06;5094604;28;20031;-78
2022/11/07 02:12:01;;;;;;;8.15;2.20;;;;;;;10.52;100.00;100537.63;5098089;28;20043;-78
2022/11/07 02:14:30;;;;;;;6.40;1.90;;;;;;;10.48;100.00;100526.94;5066185;28;20552;-78
2022/11/07 02:16:57;;;;;;;8.05;2.17;;;;;;;10.46;100.00;100536.28;5062467;28;20105;-78
2022/11/07 02:19:37;;;;;;;9.73;2.35;;;;;;;10.43;100.00;100539.28;5063479;28;20098;-79
2022/11/07 02:22:37;;;;;;;8.10;2.17;;;;;;;10.46;100.00;100531.69;5099145;28;20027;-78
2022/11/07 02:25:11;;;;;;;9.07;2.22;;;;;;;10.46;100.00;100533.53;5084238;28;20035;-79
2022/11/07 02:27:38;;;;;;;7.75;2.25;;;;;;;10.43;100.00;100534.69;5101754;28;20032;-79
2022/11/07 02:30:23;;;;;;;9.75;2.05;;;;;;;10.46;100.00;100528.94;5069629;28;20039;-79
2022/11/07 02:32:49;;;;;;;11.43;2.17;;;;;;;10.44;100.00;100525.44;5123122;28;20043;-80
2022/11/07 02:35:33;;;;;;;8.10;2.20;;;;;;;10.41;100.00;100536.69;5070134;28;20047;-79
2022/11/07 02:37:59;;;;;;;6.90;1.98;;;;;;;10.42;100.00;100534.81;5083756;28;20119;-78
2022/11/07 02:40:27;;;;;;;24.95;3.53;;;;;;;10.50;100.00;100526.81;5083104;28;20464;-79
2022/11/07 02:42:53;;;;;;;12.60;2.90;;;;;;;10.50;100.00;100521.34;5101576;28;20031;-78
2022/11/07 02:45:25;;;;;;;10.55;2.28;;;;;;;10.53;100.00;100531.19;5121363;28;20040;-78
2022/11/07 02:47:51;;;;;;;12.47;2.30;;;;;;;10.52;100.00;100526.69;5088858;28;20092;-77
2022/11/07 02:50:16;;;;;;;7.82;2.15;;;;;;;10.52;100.00;100530.28;5083884;28;20071;-78
2022/11/07 02:52:42;;;;;;;12.70;2.58;;;;;;;10.51;100.00;100530.41;5093888;28;20087;-78
2022/11/07 02:55:09;;;;;;;13.38;1.92;;;;;;;10.43;100.00;100529.19;5086096;28;20070;-78
2022/11/07 02:57:35;;;;;;;16.02;4.32;;;;;;;10.52;100.00;100530.28;5103938;28;20485;-78
2022/11/07 03:00:00;;;;;;;12.73;2.67;;;;;;;10.51;100.00;100528.56;5086140;28;20058;-78
2022/11/07 03:02:26;;;;;;;11.52;2.17;;;;;;;10.41;100.00;100539.41;5124900;28;20449;-78
2022/11/07 03:04:52;;;;;;;17.58;2.80;;;;;;;10.36;100.00;100533.44;5082943;28;20036;-78
2022/11/07 03:07:19;;;;;;;11.40;1.80;;;;;;;10.33;100.00;100532.81;5112796;28;20039;-77
2022/11/07 03:09:45;;;;;;;18.25;2.50;;;;;;;10.35;100.00;100528.97;5112676;28;20035;-77
2022/11/07 03:12:10;;;;;;;8.82;1.88;;;;;;;10.42;100.00;100534.81;5098540;28;20046;-78
2022/11/07 03:14:36;;;;;;;13.60;2.10;;;;;;;10.40;100.00;100534.06;5115399;28;20397;-77
2022/11/07 03:17:02;;;;;;;11.18;2.20;;;;;;;10.37;100.00;100540.66;5077065;28;20027;-78
2022/11/07 03:19:27;;;;;;;12.82;1.85;;;;;;;10.38;100.00;100542.41;5127925;28;20023;-78
2022/11/07 03:21:53;;;;;;;15.25;2.55;;;;;;;10.38;100.00;100538.78;5106293;28;20112;-78
2022/11/07 03:24:18;;;;;;;10.52;2.15;;;;;;;10.37;100.00;100537.91;5086665;28;20110;-79
2022/11/07 03:26:44;;;;;;;13.20;2.15;;;;;;;10.32;100.00;100531.06;5086784;28;20027;-78
2022/11/07 03:29:10;;;;;;;11.65;2.10;;;;;;;10.33;100.00;100528.25;5114012;28;20076;-78
2022/11/07 03:31:35;;;;;;;8.38;2.20;;;;;;;10.27;100.00;100540.53;5123075;28;20047;-78
2022/11/07 03:34:01;;;;;;;12.57;2.45;;;;;;;10.26;100.00;100538.81;5089717;28;20055;-78
2022/11/07 03:36:27;;;;;;;11.98;2.00;;;;;;;10.30;100.00;100547.63;5107498;28;20042;-78
2022/11/07 03:38:52;;;;;;;17.70;2.30;;;;;;;10.36;100.00;100538.06;5070518;28;20037;-78
2022/11/07 03:41:18;;;;;;;11.55;2.28;;;;;;;10.37;100.00;100543.41;5087289;28;20379;-78
2022/11/07 03:43:44;;;;;;;14.15;2.28;;;;;;;10.37;100.00;100542.53;5103761;28;20032;-78
2022/11/07 03:46:10;;;;;;;12.15;1.90;;;;;;;10.41;100.00;100547.63;5086069;28;20118;-78
2022/11/07 03:48:36;;;;;;;10.30;2.25;;;;;;;10.47;100.00;100554.44;5081633;28;20043;-78
2022/11/07 03:51:04;;;;;;;14.00;2.10;;;;;;;10.47;100.00;100548.97;5121076;28;20463;-78
2022/11/07 03:53:29;;;;;;;11.77;2.13;;;;;;;10.61;100.00;100553.31;5042518;28;20040;-78
2022/11/07 03:55:55;;;;;;;17.90;2.67;;;;;;;10.57;100.00;100549.94;5079665;28;20482;-78
2022/11/07 03:58:23;;;;;;;14.82;1.98;;;;;;;10.59;100.00;100549.81;5086053;28;20026;-79
2022/11/07 04:00:48;;;;;;;12.73;2.15;;;;;;;10.61;100.00;100554.16;5121600;28;20084;-78
2022/11/07 04:03:14;;;;;;;8.98;1.70;;;;;;;10.56;100.00;100556.41;5086577;28;20421;-78
2022/11/07 04:05:40;;;;;;;11.75;1.80;;;;;;;10.53;100.00;100559.41;5100901;28;20051;-78
2022/11/07 04:08:05;;;;;;;23.52;2.53;;;;;;;10.53;100.00;100547.59;5099725;28;20055;-78
2022/11/07 04:10:34;;;;;;;16.17;1.95;;;;;;;10.51;100.00;100549.56;5103304;28;20499;-79
2022/11/07 04:18:29;;;;;;;7.85;1.70;;;;;;;10.50;100.00;100551.44;5105910;28;20043;-79
2022/11/07 04:20:55;;;;;;;14.27;1.90;;;;;;;10.44;100.00;100541.88;5101132;28;20046;-79
2022/11/07 04:23:20;;;;;;;11.85;1.88;;;;;;;10.47;100.00;100551.72;5120686;28;20532;-79
2022/11/07 04:28:30;;;;;;;13.05;2.47;;;;;;;10.42;100.00;100557.56;5081282;28;20040;-78
2022/11/07 04:30:56;;;;;;;13.75;2.33;;;;;;;10.43;100.00;100550.25;5086456;28;20118;-78
2022/11/07 04:33:21;;;;;;;10.85;1.77;;;;;;;10.40;100.00;100548.63;5065119;28;20054;-78
2022/11/07 04:35:47;;;;;;;14.20;2.17;;;;;;;10.39;100.00;100546.00;5066421;28;20437;-79
2022/11/07 04:38:13;;;;;;;10.45;1.60;;;;;;;10.39;100.00;100533.19;5076640;28;20122;-78
2022/11/07 04:40:39;;;;;;;11.20;1.90;;;;;;;10.39;100.00;100546.00;5084972;28;20122;-78
2022/11/07 04:43:07;;;;;;;16.77;2.58;;;;;;;10.44;100.00;100543.75;5083048;28;20054;-80
2022/11/07 04:45:37;;;;;;;13.52;1.80;;;;;;;10.44;100.00;100550.09;5099811;28;20036;-78
2022/11/07 04:48:04;;;;;;;15.27;2.17;;;;;;;10.40;100.00;100539.53;5089971;28;20042;-80
2022/11/07 04:50:33;;;;;;;21.55;2.63;;;;;;;10.44;100.00;100552.81;5101716;28;20028;-79
2022/11/07 04:52:58;;;;;;;19.48;2.63;;;;;;;10.37;100.00;100550.75;5084359;28;20173;-79
2022/11/07 04:55:26;;;;;;;14.35;2.35;;;;;;;10.33;100.00;100541.94;5102755;28;20067;-78
2022/11/07 04:57:52;;;;;;;11.50;1.70;;;;;;;10.50;100.00;100542.38;5098237;28;20035;-78
2022/11/07 05:00:18;;;;;;;21.02;2.40;;;;;;;10.47;100.00;100548.97;5116735;28;20483;-78
2022/11/07 05:02:45;;;;;;;11.85;3.05;;;;;;;10.48;100.00;100546.09;5081031;28;20035;-78
2022/11/07 05:05:11;;;;;;;15.82;1.67;;;;;;;10.48;100.00;100546.09;5098330;28;20391;-78
2022/11/07 05:07:38;;;;;;;20.13;3.20;;;;;;;10.46;100.00;100548.13;5116869;28;20490;-79
2022/11/07 05:10:05;;;;;;;20.48;2.28;;;;;;;10.48;100.00;100548.84;5092716;28;20076;-78
2022/11/07 05:12:31;;;;;;;15.30;1.67;;;;;;;10.54;100.00;100554.78;5063604;28;20070;-78
2022/11/07 05:14:57;;;;;;;16.67;2.20;;;;;;;10.53;100.00;100548.47;5079336;28;20484;-77
2022/11/07 05:17:23;;;;;;;9.07;1.85;;;;;;;10.52;100.00;100552.19;5094077;28;20046;-77
2022/11/07 05:19:48;;;;;;;12.75;1.95;;;;;;;10.56;100.00;100550.94;5118945;28;20489;-78
2022/11/07 05:24:58;;;;;;;7.40;1.30;;;;;;;10.58;100.00;100567.25;5101365;28;20035;-77
2022/11/07 05:27:24;;;;;;;18.45;3.42;;;;;;;10.50;100.00;100565.13;5076246;28;20498;-77
2022/11/07 05:29:50;;;;;;;10.73;1.70;;;;;;;10.56;100.00;100561.00;5082051;28;20036;-77
2022/11/07 05:32:16;;;;;;;13.70;2.08;;;;;;;10.60;100.00;100567.97;5097266;28;20392;-78
2022/11/07 05:34:41;;;;;;;15.27;1.50;;;;;;;10.55;100.00;100560.16;5081095;28;20071;-77
2022/11/07 05:37:08;;;;;;;14.95;1.92;;;;;;;10.51;100.00;100557.78;5079949;28;20047;-78
2022/11/07 05:39:34;;;;;;;13.30;1.80;;;;;;;10.52;100.00;100559.53;5095215;28;20494;-78
2022/11/07 05:42:00;;;;;;;17.80;2.55;;;;;;;10.51;100.00;100566.88;5069640;28;20493;-78
2022/11/07 05:44:26;;;;;;;11.00;2.30;;;;;;;10.56;100.00;100563.75;5099139;28;20039;-79
2022/11/07 05:46:51;;;;;;;16.05;1.77;;;;;;;10.59;100.00;100572.59;5098804;28;20044;-78
2022/11/07 05:49:17;;;;;;;10.90;1.83;;;;;;;10.62;100.00;100569.56;5082286;28;20081;-78
2022/11/07 05:51:42;;;;;;;16.67;2.00;;;;;;;10.65;100.00;100576.66;5077914;28;20032;-77
2022/11/07 05:54:08;;;;;;;10.52;1.67;;;;;;;10.73;100.00;100571.41;5072641;28;20028;-78
2022/11/07 05:56:36;;;;;;;10.77;1.90;;;;;;;10.78;100.00;100574.63;5075596;28;20032;-76
2022/11/07 05:59:03;;;;;;;8.75;1.58;;;;;;;10.89;100.00;100586.53;5081306;28;20089;-77
2022/11/07 06:01:28;;;;;;;14.82;2.15;;;;;;;10.88;100.00;100582.06;5056336;28;20028;-77
2022/11/07 06:03:54;;;;;;;14.40;1.60;;;;;;;10.90;100.00;100572.72;5049274;28;20043;-77
2022/11/07 06:06:20;;;;;;;13.82;2.13;;;;;;;10.91;100.00;100566.25;5064928;28;20085;-77
2022/11/07 06:08:46;;;;;;;14.32;2.30;;;;;;;10.89;100.00;100561.88;5100168;28;20033;-77
2022/11/07 06:11:11;;;;;;;9.45;2.13;;;;;;;11.00;100.00;100570.06;5071274;28;20058;-77
2022/11/07 06:13:36;;;;;;;16.70;1.70;;;;;;;10.93;100.00;100564.25;5081780;28;20066;-77
2022/11/07 06:16:02;;;;;;;13.93;1.85;;;;;;;10.96;100.00;100579.56;5082586;28;20039;-77
2022/11/07 06:18:29;;;;;;;12.00;2.03;;;;;;;10.97;100.00;100579.44;5101536;28;20020;-77
2022/11/07 06:20:54;;;;;;;17.23;2.13;;;;;;;10.99;100.00;100571.06;5098873;28;20042;-77
2022/11/07 06:23:20;;;;;;;12.35;1.30;;;;;;;10.96;100.00;100566.72;5100141;28;20040;-76
2022/11/07 06:25:50;;;;;;;6.78;1.58;;;;;;;10.93;100.00;100569.72;5081061;28;20043;-77
2022/11/07 06:28:16;;;;;;;10.77;1.30;;;;;;;10.98;100.00;100564.72;5068084;28;20035;-79
2022/11/07 06:30:42;;;;;;;15.45;1.73;;;;;;;11.01;100.00;100569.94;5093419;28;20050;-77
2022/11/07 06:33:14;;;;;;;16.63;1.83;;;;;;;11.05;100.00;100570.53;5101845;28;20023;-78
2022/11/07 06:35:40;;;;;;;11.02;1.65;;;;;;;11.02;100.00;100570.81;5102775;28;20035;-78
2022/11/07 06:38:10;;;;;;;13.65;1.80;;;;;;;11.12;100.00;100585.47;5101362;28;20394;-77
2022/11/07 06:40:37;;;;;;;16.02;2.05;;;;;;;11.18;100.00;100586.78;5112086;28;20044;-78
2022/11/07 06:43:13;;;;;;;12.23;1.90;;;;;;;11.10;100.00;100590.22;5084848;28;20050;-77
2022/11/07 06:45:39;;;;;;;23.10;1.98;;;;;;;11.18;100.00;100595.91;5081924;28;20050;-77
2022/11/07 06:48:05;;;;;;;9.32;1.90;;;;;;;11.16;100.00;100592.41;5083135;28;20062;-77
2022/11/07 06:50:31;;;;;;;14.40;1.60;;;;;;;11.16;100.00;100597.03;5099716;28;20402;-77
2022/11/07 06:53:05;;;;;;;6.80;1.38;;;;;;;11.25;100.00;100607.19;5079315;28;20032;-77
2022/11/07 06:55:32;;;;;;;19.33;2.28;;;;;;;11.28;100.00;100606.06;5086471;28;20482;-78
2022/11/07 06:57:59;;;;;;;12.23;1.77;;;;;;;11.27;100.00;100605.19;5099061;28;20035;-76
2022/11/07 07:00:26;;;;;;;10.52;1.65;;;;;;;11.35;100.00;100610.03;5083088;28;20479;-78
2022/11/07 07:02:52;;;;;;;17.08;1.60;;;;;;;11.35;100.00;100610.03;5101062;28;20114;-77
2022/11/07 07:05:18;;;;;;;9.55;1.67;;;;;;;11.38;100.00;100610.63;5084435;28;20058;-77
2022/11/07 07:07:44;;;;;;;17.95;2.58;;;;;;;11.38;100.00;100607.00;5117595;28;20039;-77
2022/11/07 07:10:09;;;;;;;9.10;1.38;;;;;;;11.46;100.00;100607.22;5097990;28;20103;-77
2022/11/07 07:12:35;;;;;;;13.35;1.40;;;;;;;11.53;100.00;100610.28;5097601;28;20051;-78
2022/11/07 07:15:00;;;;;;;13.77;2.00;;;;;;;11.48;100.00;100616.16;5060380;28;20035;-77
2022/11/07 07:17:26;;;;;;;14.55;2.65;;;;;;;11.45;100.00;100618.31;5077254;28;20669;-76
2022/11/07 07:19:52;;;;;;;13.93;1.60;;;;;;;11.51;100.00;100628.72;5092897;28;20040;-77
2022/11/07 07:22:17;;;;;;;13.40;1.98;;;;;;;11.39;100.00;100612.34;5060241;28;20027;-77
2022/11/07 07:24:43;;;;;;;9.57;1.42;;;;;;;11.43;100.00;100621.19;5046081;28;20169;-77
2022/11/07 07:27:10;;;;;;;11.18;1.50;;;;;;;11.54;100.00;100626.63;5081372;28;20131;-77
2022/11/07 07:29:35;;;;;;;13.20;1.77;;;;;;;11.52;100.00;100633.22;5071576;28;20032;-77
2022/11/07 07:32:01;;;;;;;11.98;1.38;;;;;;;11.50;100.00;100638.84;5072435;28;20044;-77
2022/11/07 07:34:26;;;;;;;10.60;1.40;;;;;;;11.56;100.00;100638.31;5106334;28;20036;-77
2022/11/07 07:36:52;;;;;;;9.52;1.20;;;;;;;11.57;100.00;100641.91;5089664;28;20368;-77
2022/11/07 07:39:18;;;;;;;13.13;1.98;;;;;;;11.72;100.00;100646.06;5090263;28;20035;-76
2022/11/07 07:41:43;;;;;;;9.73;1.35;;;;;;;11.82;100.00;100651.59;5100421;28;20040;-77
2022/11/07 07:44:09;;;;;;;11.68;2.88;;;;;;;11.90;100.00;100649.06;5096447;28;20038;-77
2022/11/07 07:46:35;;;;;;;16.33;1.60;;;;;;;11.91;100.00;100653.56;5098472;28;20458;-77
2022/11/07 07:49:00;;;;;;;10.65;1.77;;;;;;;11.79;100.00;100646.41;5066672;28;20035;-78
2022/11/07 07:51:26;;;;;;;17.20;2.67;;;;;;;11.76;100.00;100653.00;5082591;28;20023;-78
2022/11/07 07:53:52;;;;;;;11.02;1.77;;;;;;;11.78;100.00;100648.25;5067519;28;20042;-77
2022/11/07 07:56:18;;;;;;;13.00;1.55;;;;;;;11.83;100.00;100656.09;5081250;28;20067;-76
2022/11/07 07:58:44;;;;;;;16.80;3.33;;;;;;;11.87;100.00;100654.84;5116041;28;20035;-77
2022/11/07 08:01:10;;;;;;;10.48;1.40;;;;;;;11.90;100.00;100651.81;5090437;28;20062;-78
2022/11/07 08:03:36;;;;;;;18.73;2.17;;;;;;;12.00;100.00;100670.22;5108246;28;20039;-77
2022/11/07 08:06:04;;;;;;;15.23;1.83;;;;;;;12.15;100.00;100663.41;5100618;28;20027;-77
2022/11/07 08:08:30;;;;;;;14.10;2.33;;;;;;;12.20;100.00;100666.59;5076800;28;20554;-77
2022/11/07 08:11:06;;;;;;;12.63;2.15;;;;;;;12.28;100.00;100669.53;5108661;28;20027;-77
2022/11/07 08:13:32;;;;;;;10.80;1.80;;;;;;;12.35;100.00;100671.69;5059672;28;20047;-77
2022/11/07 08:15:57;;;;;;;12.70;1.77;;;;;;;12.25;100.00;100667.06;5052385;28;20027;-78
2022/11/07 08:18:23;;;;;;;14.80;1.52;;;;;;;12.37;100.00;100673.31;5083137;28;20040;-78
2022/11/07 08:20:54;;;;;;;9.75;1.80;;;;;;;12.50;100.00;100681.31;5096684;28;20035;-77
2022/11/07 08:23:20;;;;;;;10.07;1.67;;;;;;;12.44;100.00;100679.13;5080519;28;20044;-77
2022/11/07 08:25:54;;;;;;;16.02;3.00;;;;;;;12.34;100.00;100679.06;5114458;28;20383;-77
2022/11/07 08:28:22;;;;;;;17.33;1.92;;;;;;;12.28;100.00;100683.25;5106162;28;20409;-77
2022/11/07 08:31:07;;;;;;;19.50;2.08;;;;;;;12.25;100.00;100683.53;5112358;28;20490;-77
2022/11/07 08:33:34;;;;;;;20.65;2.13;;;;;;;12.27;100.00;100684.25;5094894;28;20039;-76
2022/11/07 08:36:01;;;;;;;8.05;1.55;;;;;;;12.23;100.00;100688.28;5089672;28;20027;-77
2022/11/07 08:38:28;;;;;;;12.65;1.52;;;;;;;12.15;100.00;100690.84;5097530;28;20027;-77
2022/11/07 08:40:55;;;;;;;15.18;2.60;;;;;;;12.18;100.00;100685.06;5094500;28;20114;-77
2022/11/07 08:43:20;;;;;;;17.23;2.22;;;;;;;12.26;100.00;100682.50;5115420;28;20498;-78
2022/11/07 08:45:47;;;;;;;20.00;2.88;;;;;;;12.34;100.00;100689.19;5063441;28;20032;-78
2022/11/07 08:48:14;;;;;;;16.02;2.17;;;;;;;12.42;100.00;100689.38;5097086;28;20048;-78
2022/11/07 08:50:40;;;;;;;13.77;1.80;;;;;;;12.39;100.00;100696.00;5063356;28;20031;-77
2022/11/07 08:53:09;;;;;;;15.10;1.88;;;;;;;12.42;100.00;100700.38;5081249;28;20487;-77
2022/11/07 08:55:36;;;;;;;15.50;2.42;;;;;;;12.42;100.00;100695.72;5078172;28;20050;-76
2022/11/07 08:58:06;;;;;;;10.38;1.63;;;;;;;12.46;100.00;100696.31;5064666;28;20114;-77
2022/11/07 09:00:33;;;;;;;11.63;2.00;;;;;;;12.50;100.00;100700.53;5082847;28;20066;-77
2022/11/07 09:03:04;;;;;;;17.58;2.63;;;;;;;12.50;100.00;100692.31;5081574;28;20028;-77
2022/11/07 09:05:29;;;;;;;13.15;1.85;;;;;;;12.55;100.00;100697.38;5077003;28;20099;-79
2022/11/07 09:07:57;;;;;;;11.90;1.58;;;;;;;12.57;100.00;100711.84;5091783;28;20072;-77
2022/11/07 09:10:22;;;;;;;14.07;1.70;;;;;;;12.54;100.00;100710.22;5073241;28;20077;-78
2022/11/07 09:12:49;;;;;;;13.82;2.50;;;;;;;12.57;100.00;100718.19;5085872;28;20506;-77
2022/11/07 09:15:16;;;;;;;12.88;1.55;;;;;;;12.60;100.00;100715.19;5059210;28;20043;-78
2022/11/07 09:17:41;;;;;;;11.90;1.63;;;;;;;12.59;100.00;100724.44;5080315;28;20028;-78
2022/11/07 09:20:09;;;;;;;10.93;1.30;;;;;;;12.68;100.00;100733.72;5078293;28;20030;-77
2022/11/07 09:22:34;;;;;;;18.33;2.00;;;;;;;12.64;100.00;100729.50;5082301;28;20078;-77
2022/11/07 09:25:00;;;;;;;10.70;1.60;;;;;;;12.70;100.00;100731.69;5097524;28;20027;-77
2022/11/07 09:27:26;;;;;;;17.17;2.10;;;;;;;12.71;100.00;100732.56;5108149;28;20028;-77
2022/11/07 09:29:51;;;;;;;9.32;1.75;;;;;;;12.75;100.00;100728.53;5113279;28;20046;-77
2022/11/07 09:32:17;;;;;;;11.40;1.98;;;;;;;12.76;100.00;100739.41;5105660;28;20083;-77
2022/11/07 09:34:45;;;;;;;8.20;1.20;;;;;;;12.71;100.00;100743.53;5065101;28;20043;-76
2022/11/07 09:37:11;;;;;;;21.48;1.85;;;;;;;12.71;100.00;100752.69;5065586;28;20024;-78
2022/11/07 09:39:37;;;;;;;15.40;2.00;;;;;;;12.74;100.00;100743.28;5055195;28;20040;-77
2022/11/07 09:42:19;;;;;;;13.30;1.45;;;;;;;12.78;100.00;100737.38;5080624;28;20042;-77
2022/11/07 09:44:54;;;;;;;14.98;1.90;;;;;;;12.95;100.00;100738.56;5096434;28;20494;-77
2022/11/07 09:47:39;;;;;;;11.32;1.40;;;;;;;12.94;100.00;100742.34;5079798;28;20118;-77
2022/11/07 09:50:22;;;;;;;10.77;2.25;;;;;;;13.02;100.00;100748.00;5075637;28;20032;-77
2022/11/07 09:53:02;;;;;;;18.10;2.90;;;;;;;13.05;100.00;100742.25;5119732;28;20056;-77
2022/11/07 09:55:34;;;;;;;15.23;2.80;;;;;;;12.94;100.00;100747.00;5089731;28;20035;-79
2022/11/07 09:58:04;;;;;;;12.48;1.50;;;;;;;13.00;100.00;100747.28;5092248;28;20027;-78
2022/11/07 10:00:33;;;;;;;11.65;1.58;;;;;;;13.01;100.00;100754.50;5075616;28;20100;-77
2022/11/07 10:03:00;;;;;;;10.43;1.60;;;;;;;12.98;100.00;100753.94;5106694;28;20190;-78
2022/11/07 10:05:49;;;;;;;15.10;2.00;;;;;;;13.12;100.00;100745.28;5075536;28;20085;-79
2022/11/07 10:08:28;;;;;;;11.43;1.77;;;;;;;13.06;100.00;100746.72;5072311;28;20023;-78
2022/11/07 10:10:58;;;;;;;16.98;3.33;;;;;;;13.02;100.00;100742.53;5097672;28;20031;-79
2022/11/07 10:13:49;;;;;;;14.23;2.53;;;;;;;13.15;100.00;100738.63;5099146;28;20437;-78
2022/11/07 10:16:32;;;;;;;13.23;1.55;;;;;;;13.26;100.00;100743.16;5101738;28;20024;-77
2022/11/07 10:19:23;;;;;;;18.90;2.85;;;;;;;13.40;100.00;100751.88;5085611;28;20058;-77
2022/11/07 10:22:07;;;;;;;16.58;2.53;;;;;;;13.59;100.00;100752.91;5097843;28;20494;-78
2022/11/07 10:24:40;;;;;;;19.80;3.95;;;;;;;13.68;100.00;100748.44;5074622;28;20038;-78
2022/11/07 10:27:09;;;;;;;;;;;;;;;13.74;100.00;100761.59;5074895;28;20476;-78
2022/11/07 10:29:40;;;;;;;16.85;1.92;;;;;;;13.62;100.00;100762.78;5082321;28;19918;-79
2022/11/07 10:32:24;;;;;;;14.25;1.88;;;;;;;13.62;100.00;100758.13;5084364;28;20056;-78
2022/11/07 10:34:54;;;;;;;7.90;1.25;;;;;;;13.56;100.00;100758.69;5080971;28;20032;-79
2022/11/07 10:37:20;;;;;;;14.05;1.95;;;;;;;13.66;100.00;100756.84;5079047;28;20028;-79
2022/11/07 10:39:45;;;;;;;10.65;1.80;;;;;;;13.71;100.00;100770.19;5069211;28;20400;-78
2022/11/07 10:42:19;;;;;;;20.38;2.47;;;;;;;13.77;100.00;100767.72;5084427;28;20287;-78
2022/11/07 10:44:47;;;;;;;16.15;3.33;;;;;;;13.93;100.00;100763.50;5080983;28;20441;-78
2022/11/07 10:47:26;;;;;;;9.73;1.25;;;;;;;14.01;100.00;100769.13;5097149;28;20047;-79
2022/11/07 10:50:01;;;;;;;19.67;1.77;;;;;;;14.01;100.00;100774.66;5095989;28;20506;-76
2022/11/07 10:52:28;;;;;;;16.05;1.98;;;;;;;13.91;100.00;100771.03;5097976;28;20413;-77
2022/11/07 10:55:07;;;;;;;16.15;1.77;;;;;;;14.00;100.00;100774.78;5099381;28;20037;-78
2022/11/07 10:57:34;;;;;;;16.83;1.67;;;;;;;14.12;100.00;100766.25;5094124;28;20096;-78
2022/11/07 11:00:00;;;;;;;15.38;2.38;;;;;;;13.97;100.00;100768.56;5070249;28;20474;-77
2022/11/07 11:02:43;;;;;;;13.15;1.65;;;;;;;14.09;100.00;100774.78;5062782;28;20054;-78
2022/11/07 11:05:23;;;;;;;16.15;2.15;;;;;;;14.12;100.00;100780.00;5095094;28;20020;-78
2022/11/07 11:07:49;;;;;;;8.07;1.38;;;;;;;14.22;100.00;100779.13;5071241;28;20063;-77
2022/11/07 11:10:27;;;;;;;19.23;2.28;;;;;;;14.15;100.00;100770.59;5095074;28;20103;-77
2022/11/07 11:12:53;;;;;;;17.58;1.83;;;;;;;14.22;100.00;100770.88;5090382;28;20390;-78
2022/11/07 11:15:23;;;;;;;21.00;2.45;;;;;;;14.17;100.00;100771.31;5097273;28;20032;-77
2022/11/07 11:18:04;;;;;;;16.50;1.73;;;;;;;14.09;100.00;100771.16;5097519;28;20035;-78
2022/11/07 11:20:35;;;;;;;13.55;1.73;;;;;;;14.10;100.00;100772.88;5097934;28;20536;-77
2022/11/07 11:23:05;;;;;;;15.50;2.03;;;;;;;14.06;100.00;100782.47;5098397;28;20553;-78
2022/11/07 11:25:41;;;;;;;14.30;1.63;;;;;;;13.98;100.00;100781.31;5095770;28;20032;-77
2022/11/07 11:28:12;;;;;;;15.73;2.90;;;;;;;13.91;100.00;100777.41;5088613;28;20439;-77
2022/11/07 11:30:38;;;;;;;11.27;1.92;;;;;;;14.02;100.00;100772.75;5096064;28;20095;-77
2022/11/07 11:33:04;;;;;;;16.48;1.58;;;;;;;14.05;100.00;100777.97;5060398;28;20079;-77